sensor_id;sensor_type;location;lat;lon;timestamp;pressure;altitude;pressure_sealevel;temperature;humidity
36630;BME280;36256;42.154;23.002;2023-05-20T00:01:41;97441.75;;;14.40;100.00
36630;BME280;36256;42.154;23.002;2023-05-20T00:04:08;97440.53;;;14.32;100.00
36630;BME280;36256;42.154;23.002;2023-05-20T00:06:35;97443.97;;;14.36;100.00
36630;BME280;36256;42.154;23.002;2023-05-20T00:09:02;97442.06;;;14.42;100.00
36630;BME280;36256;42.154;23.002;2023-05-20T00:11:29;97454.28;;;14.39;100.00
36630;BME280;36256;42.154;23.002;2023-05-20T00:13:56;97442.69;;;14.37;100.00
36630;BME280;36256;42.154;23.002;2023-05-20T00:16:23;97443.59;;;14.43;100.00
36630;BME280;36256;42.154;23.002;2023-05-20T00:18:50;97438.31;;;14.36;100.00
36630;BME280;36256;42.154;23.002;2023-05-20T00:21:16;97444.91;;;14.33;100.00
36630;BME280;36256;42.154;23.002;2023-05-20T00:23:43;97442.38;;;14.35;100.00
36630;BME280;36256;42.154;23.002;2023-05-20T00:26:10;97445.84;;;14.21;100.00
36630;BME280;36256;42.154;23.002;2023-05-20T00:28:36;97449.16;;;14.19;100.00
36630;BME280;36256;42.154;23.002;2023-05-20T00:31:03;97439.91;;;14.18;100.00
36630;BME280;36256;42.154;23.002;2023-05-20T00:33:30;97439.28;;;14.14;100.00
36630;BME280;36256;42.154;23.002;2023-05-20T00:35:57;97439.91;;;14.18;100.00
36630;BME280;36256;42.154;23.002;2023-05-20T00:38:23;97448.38;;;14.18;100.00
36630;BME280;36256;42.154;23.002;2023-05-20T00:40:50;97446.97;;;14.14;100.00
36630;BME280;36256;42.154;23.002;2023-05-20T00:43:17;97465.94;;;14.13;100.00
36630;BME280;36256;42.154;23.002;2023-05-20T00:45:46;97455.63;;;14.10;100.00
36630;BME280;36256;42.154;23.002;2023-05-20T00:48:13;97459.06;;;14.05;100.00
36630;BME280;36256;42.154;23.002;2023-05-20T00:50:40;97463.78;;;13.99;100.00
36630;BME280;36256;42.154;23.002;2023-05-20T00:53:06;97460.47;;;13.92;100.00
36630;BME280;36256;42.154;23.002;2023-05-20T00:55:34;97464.09;;;13.83;100.00
36630;BME280;36256;42.154;23.002;2023-05-20T00:58:01;97457.84;;;13.79;100.00
36630;BME280;36256;42.154;23.002;2023-05-20T01:00:28;97455.03;;;13.70;100.00
36630;BME280;36256;42.154;23.002;2023-05-20T01:02:55;97454.44;;;13.66;100.00
36630;BME280;36256;42.154;23.002;2023-05-20T01:05:22;97445.66;;;13.64;100.00
36630;BME280;36256;42.154;23.002;2023-05-20T01:07:49;97454.25;;;13.70;100.00
36630;BME280;36256;42.154;23.002;2023-05-20T01:10:16;97455.53;;;13.60;100.00
36630;BME280;36256;42.154;23.002;2023-05-20T01:12:53;97458.47;;;13.56;100.00
36630;BME280;36256;42.154;23.002;2023-05-20T01:15:23;97462.09;;;13.57;100.00
36630;BME280;36256;42.154;23.002;2023-05-20T01:17:57;97464.13;;;13.65;100.00
36630;BME280;36256;42.154;23.002;2023-05-20T01:20:27;97471.50;;;13.54;100.00
36630;BME280;36256;42.154;23.002;2023-05-20T01:22:58;97465.69;;;13.48;100.00
36630;BME280;36256;42.154;23.002;2023-05-20T01:25:25;97450.94;;;13.35;100.00
36630;BME280;36256;42.154;23.002;2023-05-20T01:27:53;97455.03;;;13.34;100.00
36630;BME280;36256;42.154;23.002;2023-05-20T01:30:20;97455.03;;;13.34;100.00
36630;BME280;36256;42.154;23.002;2023-05-20T01:32:49;97454.72;;;13.23;100.00
36630;BME280;36256;42.154;23.002;2023-05-20T01:35:20;97443.09;;;13.12;100.00
36630;BME280;36256;42.154;23.002;2023-05-20T01:37:49;97446.66;;;13.03;100.00
36630;BME280;36256;42.154;23.002;2023-05-20T01:40:17;97441.78;;;12.86;100.00
36630;BME280;36256;42.154;23.002;2023-05-20T01:42:45;97452.09;;;12.80;100.00
36630;BME280;36256;42.154;23.002;2023-05-20T01:45:18;97442.34;;;12.72;100.00
36630;BME280;36256;42.154;23.002;2023-05-20T01:47:45;97425.09;;;12.51;100.00
36630;BME280;36256;42.154;23.002;2023-05-20T01:50:12;97437.03;;;12.65;100.00
36630;BME280;36256;42.154;23.002;2023-05-20T01:52:39;97419.78;;;12.53;100.00
36630;BME280;36256;42.154;23.002;2023-05-20T01:55:06;97437.03;;;12.65;100.00
36630;BME280;36256;42.154;23.002;2023-05-20T01:57:33;97436.72;;;12.63;100.00
36630;BME280;36256;42.154;23.002;2023-05-20T01:59:59;97433.13;;;12.62;100.00
36630;BME280;36256;42.154;23.002;2023-05-20T02:02:26;97426.84;;;12.58;100.00
36630;BME280;36256;42.154;23.002;2023-05-20T02:04:53;97426.34;;;12.50;100.00
36630;BME280;36256;42.154;23.002;2023-05-20T02:07:20;97428.44;;;12.28;100.00
36630;BME280;36256;42.154;23.002;2023-05-20T02:09:47;97425.91;;;12.21;100.00
36630;BME280;36256;42.154;23.002;2023-05-20T02:12:13;97424.25;;;12.33;100.00
36630;BME280;36256;42.154;23.002;2023-05-20T02:14:47;97420.38;;;12.39;100.00
36630;BME280;36256;42.154;23.002;2023-05-20T02:17:15;97425.06;;;12.42;100.00
36630;BME280;36256;42.154;23.002;2023-05-20T02:19:45;97424.75;;;12.40;100.00
36630;BME280;36256;42.154;23.002;2023-05-20T02:22:13;97432.88;;;12.38;100.00
36630;BME280;36256;42.154;23.002;2023-05-20T02:24:40;97422.88;;;12.37;100.00
36630;BME280;36256;42.154;23.002;2023-05-20T02:27:08;97431.59;;;12.30;100.00
36630;BME280;36256;42.154;23.002;2023-05-20T02:29:35;97423.78;;;12.34;100.00
36630;BME280;36256;42.154;23.002;2023-05-20T02:32:02;97425.84;;;12.43;100.00
36630;BME280;36256;42.154;23.002;2023-05-20T02:34:30;97422.88;;;12.46;100.00
36630;BME280;36256;42.154;23.002;2023-05-20T02:36:57;97424.41;;;12.38;100.00
36630;BME280;36256;42.154;23.002;2023-05-20T02:39:24;97413.09;;;12.20;100.00
36630;BME280;36256;42.154;23.002;2023-05-20T02:41:51;97413.69;;;12.15;100.00
36630;BME280;36256;42.154;23.002;2023-05-20T02:44:17;97406.72;;;11.98;100.00
36630;BME280;36256;42.154;23.002;2023-05-20T02:46:44;97409.78;;;11.82;100.00
36630;BME280;36256;42.154;23.002;2023-05-20T02:49:11;97417.59;;;11.87;100.00
36630;BME280;36256;42.154;23.002;2023-05-20T02:51:39;97409.13;;;11.78;100.00
36630;BME280;36256;42.154;23.002;2023-05-20T02:54:05;97432.91;;;11.86;100.00
36630;BME280;36256;42.154;23.002;2023-05-20T02:56:32;97442.31;;;11.92;100.00
36630;BME280;36256;42.154;23.002;2023-05-20T02:58:59;97448.19;;;12.07;100.00
36630;BME280;36256;42.154;23.002;2023-05-20T03:01:26;97441.44;;;12.04;100.00
36630;BME280;36256;42.154;23.002;2023-05-20T03:03:54;97436.13;;;12.06;100.00
36630;BME280;36256;42.154;23.002;2023-05-20T03:06:21;97443.84;;;12.15;100.00
36630;BME280;36256;42.154;23.002;2023-05-20T03:08:48;97443.84;;;12.15;100.00
36630;BME280;36256;42.154;23.002;2023-05-20T03:11:14;97452.16;;;12.18;100.00
36630;BME280;36256;42.154;23.002;2023-05-20T03:13:41;97451.84;;;12.16;100.00
36630;BME280;36256;42.154;23.002;2023-05-20T03:16:08;97457.31;;;12.20;100.00
36630;BME280;36256;42.154;23.002;2023-05-20T03:18:35;97458.63;;;12.06;100.00
36630;BME280;36256;42.154;23.002;2023-05-20T03:21:01;97460.38;;;12.04;100.00
36630;BME280;36256;42.154;23.002;2023-05-20T03:23:28;97465.94;;;11.95;100.00
36630;BME280;36256;42.154;23.002;2023-05-20T03:25:55;97460.50;;;11.78;100.00
36630;BME280;36256;42.154;23.002;2023-05-20T03:28:21;97467.31;;;11.90;100.00
36630;BME280;36256;42.154;23.002;2023-05-20T03:30:48;97465.78;;;11.98;100.00
36630;BME280;36256;42.154;23.002;2023-05-20T03:33:15;97458.13;;;11.99;100.00
36630;BME280;36256;42.154;23.002;2023-05-20T03:35:42;97466.91;;;12.01;100.00
36630;BME280;36256;42.154;23.002;2023-05-20T03:38:08;97472.13;;;12.11;100.00
36630;BME280;36256;42.154;23.002;2023-05-20T03:40:35;97480.75;;;12.17;100.00
36630;BME280;36256;42.154;23.002;2023-05-20T03:43:02;97489.81;;;12.21;100.00
36630;BME280;36256;42.154;23.002;2023-05-20T03:45:28;97492.78;;;12.17;100.00
36630;BME280;36256;42.154;23.002;2023-05-20T03:47:55;97494.69;;;12.20;100.00
36630;BME280;36256;42.154;23.002;2023-05-20T03:50:22;97498.41;;;12.17;100.00
36630;BME280;36256;42.154;23.002;2023-05-20T03:52:49;97496.97;;;12.13;100.00
36630;BME280;36256;42.154;23.002;2023-05-20T03:55:15;97490.22;;;12.10;100.00
36630;BME280;36256;42.154;23.002;2023-05-20T03:57:42;97489.38;;;12.22;100.00
36630;BME280;36256;42.154;23.002;2023-05-20T04:00:09;97486.56;;;12.22;100.00
36630;BME280;36256;42.154;23.002;2023-05-20T04:02:37;97484.28;;;12.08;100.00
36630;BME280;36256;42.154;23.002;2023-05-20T04:05:04;97484.66;;;12.19;100.00
36630;BME280;36256;42.154;23.002;2023-05-20T04:07:34;97490.34;;;12.28;100.00
36630;BME280;36256;42.154;23.002;2023-05-20T04:10:03;97500.31;;;12.20;100.00
36630;BME280;36256;42.154;23.002;2023-05-20T04:12:30;97499.34;;;12.14;100.00
36630;BME280;36256;42.154;23.002;2023-05-20T04:15:00;97494.88;;;12.04;100.00
36630;BME280;36256;42.154;23.002;2023-05-20T04:17:28;97492.53;;;12.03;100.00
36630;BME280;36256;42.154;23.002;2023-05-20T04:19:58;97494.78;;;11.86;100.00
36630;BME280;36256;42.154;23.002;2023-05-20T04:22:25;97501.19;;;11.87;100.00
36630;BME280;36256;42.154;23.002;2023-05-20T04:24:52;97504.84;;;11.96;100.00
36630;BME280;36256;42.154;23.002;2023-05-20T04:27:19;97499.06;;;12.00;100.00
36630;BME280;36256;42.154;23.002;2023-05-20T04:29:47;97501.47;;;12.10;100.00
36630;BME280;36256;42.154;23.002;2023-05-20T04:32:16;97493.09;;;12.19;100.00
36630;BME280;36256;42.154;23.002;2023-05-20T04:34:47;97496.94;;;12.34;100.00
36630;BME280;36256;42.154;23.002;2023-05-20T04:37:14;97502.41;;;12.38;100.00
36630;BME280;36256;42.154;23.002;2023-05-20T04:39:41;97505.94;;;12.51;100.00
36630;BME280;36256;42.154;23.002;2023-05-20T04:42:09;97491.53;;;12.49;100.00
36630;BME280;36256;42.154;23.002;2023-05-20T04:44:36;97506.78;;;12.70;100.00
36630;BME280;36256;42.154;23.002;2023-05-20T04:47:03;97495.84;;;12.72;100.00
36630;BME280;36256;42.154;23.002;2023-05-20T04:49:30;97498.44;;;12.88;100.00
36630;BME280;36256;42.154;23.002;2023-05-20T04:51:56;97480.72;;;12.78;100.00
36630;BME280;36256;42.154;23.002;2023-05-20T04:54:24;97496.53;;;12.85;100.00
36630;BME280;36256;42.154;23.002;2023-05-20T04:56:50;97497.31;;;12.85;100.00
36630;BME280;36256;42.154;23.002;2023-05-20T04:59:17;97497.13;;;12.71;100.00
36630;BME280;36256;42.154;23.002;2023-05-20T05:01:44;97502.94;;;12.45;100.00
36630;BME280;36256;42.154;23.002;2023-05-20T05:04:10;97500.31;;;12.51;100.00
36630;BME280;36256;42.154;23.002;2023-05-20T05:06:37;97505.16;;;12.50;100.00
36630;BME280;36256;42.154;23.002;2023-05-20T05:09:04;97502.22;;;12.63;100.00
36630;BME280;36256;42.154;23.002;2023-05-20T05:11:31;97488.47;;;12.65;100.00
36630;BME280;36256;42.154;23.002;2023-05-20T05:13:57;97499.03;;;12.83;100.00
36630;BME280;36256;42.154;23.002;2023-05-20T05:16:24;97493.13;;;12.90;100.00
36630;BME280;36256;42.154;23.002;2023-05-20T05:18:51;97490.47;;;12.95;100.00
36630;BME280;36256;42.154;23.002;2023-05-20T05:21:18;97501.31;;;13.06;100.00
36630;BME280;36256;42.154;23.002;2023-05-20T05:23:45;97489.13;;;13.09;100.00
36630;BME280;36256;42.154;23.002;2023-05-20T05:26:11;97494.75;;;13.18;100.00
36630;BME280;36256;42.154;23.002;2023-05-20T05:28:40;97487.09;;;13.18;100.00
36630;BME280;36256;42.154;23.002;2023-05-20T05:31:07;97484.78;;;13.26;100.00
36630;BME280;36256;42.154;23.002;2023-05-20T05:33:34;97492.63;;;13.40;100.00
36630;BME280;36256;42.154;23.002;2023-05-20T05:36:01;97487.00;;;13.67;100.00
36630;BME280;36256;42.154;23.002;2023-05-20T05:38:28;97494.81;;;13.90;100.00
36630;BME280;36256;42.154;23.002;2023-05-20T05:40:55;97493.66;;;14.24;100.00
36630;BME280;36256;42.154;23.002;2023-05-20T05:43:21;97498.44;;;14.60;100.00
36630;BME280;36256;42.154;23.002;2023-05-20T05:45:48;97494.41;;;15.17;100.00
36630;BME280;36256;42.154;23.002;2023-05-20T05:48:15;97492.66;;;16.05;96.87
36630;BME280;36256;42.154;23.002;2023-05-20T05:50:45;97484.09;;;16.87;90.59
36630;BME280;36256;42.154;23.002;2023-05-20T05:53:12;97482.22;;;17.34;87.32
36630;BME280;36256;42.154;23.002;2023-05-20T05:55:38;97481.66;;;17.70;85.09
36630;BME280;36256;42.154;23.002;2023-05-20T05:58:05;97480.50;;;18.02;82.71
36630;BME280;36256;42.154;23.002;2023-05-20T06:00:32;97491.44;;;18.60;80.69
36630;BME280;36256;42.154;23.002;2023-05-20T06:02:59;97479.88;;;19.01;78.61
36630;BME280;36256;42.154;23.002;2023-05-20T06:05:26;97485.19;;;19.67;75.20
36630;BME280;36256;42.154;23.002;2023-05-20T06:07:56;97471.34;;;19.43;75.06
36630;BME280;36256;42.154;23.002;2023-05-20T06:10:23;97476.03;;;19.99;73.88
36630;BME280;36256;42.154;23.002;2023-05-20T06:12:50;97482.41;;;20.75;70.94
36630;BME280;36256;42.154;23.002;2023-05-20T06:15:16;97468.13;;;20.70;68.61
36630;BME280;36256;42.154;23.002;2023-05-20T06:17:43;97471.25;;;20.94;67.08
36630;BME280;36256;42.154;23.002;2023-05-20T06:20:10;97471.47;;;21.35;68.36
36630;BME280;36256;42.154;23.002;2023-05-20T06:22:37;97465.19;;;21.53;65.21
36630;BME280;36256;42.154;23.002;2023-05-20T06:25:04;97468.66;;;21.18;66.84
36630;BME280;36256;42.154;23.002;2023-05-20T06:27:31;97474.13;;;21.05;66.11
36630;BME280;36256;42.154;23.002;2023-05-20T06:29:58;97468.69;;;21.07;68.63
36630;BME280;36256;42.154;23.002;2023-05-20T06:32:26;97464.47;;;21.30;65.69
36630;BME280;36256;42.154;23.002;2023-05-20T06:34:53;97461.88;;;21.43;65.05
36630;BME280;36256;42.154;23.002;2023-05-20T06:37:19;97457.06;;;21.73;64.75
36630;BME280;36256;42.154;23.002;2023-05-20T06:39:50;97451.13;;;21.66;65.74
36630;BME280;36256;42.154;23.002;2023-05-20T06:42:19;97438.88;;;21.76;65.53
36630;BME280;36256;42.154;23.002;2023-05-20T06:44:46;97438.97;;;21.54;63.75
36630;BME280;36256;42.154;23.002;2023-05-20T06:47:15;97425.34;;;21.94;64.37
36630;BME280;36256;42.154;23.002;2023-05-20T06:49:43;97426.03;;;22.11;62.15
36630;BME280;36256;42.154;23.002;2023-05-20T06:52:13;97428.00;;;22.62;62.44
36630;BME280;36256;42.154;23.002;2023-05-20T06:54:40;97408.53;;;22.60;59.55
36630;BME280;36256;42.154;23.002;2023-05-20T06:57:07;97412.31;;;22.74;60.19
36630;BME280;36256;42.154;23.002;2023-05-20T06:59:37;97420.66;;;23.02;59.40
36630;BME280;36256;42.154;23.002;2023-05-20T07:02:04;97412.31;;;23.52;58.07
36630;BME280;36256;42.154;23.002;2023-05-20T07:04:31;97411.34;;;23.87;56.51
36630;BME280;36256;42.154;23.002;2023-05-20T07:06:57;97400.28;;;23.78;56.68
36630;BME280;36256;42.154;23.002;2023-05-20T07:09:24;97389.78;;;23.43;57.96
36630;BME280;36256;42.154;23.002;2023-05-20T07:11:51;97397.78;;;23.69;59.70
36630;BME280;36256;42.154;23.002;2023-05-20T07:14:23;97383.63;;;23.76;55.36
36630;BME280;36256;42.154;23.002;2023-05-20T07:16:58;97386.34;;;23.69;55.37
36630;BME280;36256;42.154;23.002;2023-05-20T07:19:26;97386.25;;;23.93;56.74
36630;BME280;36256;42.154;23.002;2023-05-20T07:21:53;97382.53;;;23.61;56.83
36630;BME280;36256;42.154;23.002;2023-05-20T07:24:19;97385.06;;;23.46;59.10
36630;BME280;36256;42.154;23.002;2023-05-20T07:26:46;97380.53;;;23.31;58.80
36630;BME280;36256;42.154;23.002;2023-05-20T07:29:13;97376.81;;;22.88;58.47
36630;BME280;36256;42.154;23.002;2023-05-20T07:31:39;97353.28;;;22.77;55.50
36630;BME280;36256;42.154;23.002;2023-05-20T07:34:06;97371.28;;;23.20;58.25
36630;BME280;36256;42.154;23.002;2023-05-20T07:36:33;97357.28;;;23.16;56.81
36630;BME280;36256;42.154;23.002;2023-05-20T07:39:00;97365.72;;;23.52;54.60
36630;BME280;36256;42.154;23.002;2023-05-20T07:41:30;97359.84;;;23.63;54.00
36630;BME280;36256;42.154;23.002;2023-05-20T07:43:57;97354.56;;;23.48;54.92
36630;BME280;36256;42.154;23.002;2023-05-20T07:46:24;97346.03;;;23.42;56.89
36630;BME280;36256;42.154;23.002;2023-05-20T07:48:50;97329.03;;;23.69;50.76
36630;BME280;36256;42.154;23.002;2023-05-20T07:51:17;97328.53;;;24.02;54.33
36630;BME280;36256;42.154;23.002;2023-05-20T07:53:44;97321.72;;;24.24;53.76
36630;BME280;36256;42.154;23.002;2023-05-20T07:56:11;97326.56;;;24.47;51.78
36630;BME280;36256;42.154;23.002;2023-05-20T07:58:40;97323.97;;;24.44;52.42
36630;BME280;36256;42.154;23.002;2023-05-20T08:01:07;97310.19;;;24.42;49.38
36630;BME280;36256;42.154;23.002;2023-05-20T08:03:35;97302.94;;;24.09;52.75
36630;BME280;36256;42.154;23.002;2023-05-20T08:06:02;97293.28;;;24.26;50.83
36630;BME280;36256;42.154;23.002;2023-05-20T08:08:29;97290.50;;;24.20;51.21
36630;BME280;36256;42.154;23.002;2023-05-20T08:10:56;97282.13;;;24.03;53.78
36630;BME280;36256;42.154;23.002;2023-05-20T08:13:23;97275.81;;;23.92;52.92
36630;BME280;36256;42.154;23.002;2023-05-20T08:15:52;97276.34;;;24.09;51.08
36630;BME280;36256;42.154;23.002;2023-05-20T08:18:20;97269.66;;;24.20;53.07
36630;BME280;36256;42.154;23.002;2023-05-20T08:20:46;97277.19;;;24.36;53.38
36630;BME280;36256;42.154;23.002;2023-05-20T08:23:13;97270.88;;;24.24;54.70
36630;BME280;36256;42.154;23.002;2023-05-20T08:25:40;97271.38;;;24.41;53.29
36630;BME280;36256;42.154;23.002;2023-05-20T08:28:07;97268.28;;;24.39;54.88
36630;BME280;36256;42.154;23.002;2023-05-20T08:30:33;97262.63;;;24.02;52.93
36630;BME280;36256;42.154;23.002;2023-05-20T08:33:00;97258.53;;;24.16;51.60
36630;BME280;36256;42.154;23.002;2023-05-20T08:35:27;97247.72;;;24.35;53.43
36630;BME280;36256;42.154;23.002;2023-05-20T08:37:54;97250.06;;;24.37;54.40
36630;BME280;36256;42.154;23.002;2023-05-20T08:40:21;97255.16;;;24.44;52.73
36630;BME280;36256;42.154;23.002;2023-05-20T08:42:49;97246.66;;;24.38;53.67
36630;BME280;36256;42.154;23.002;2023-05-20T08:45:19;97243.91;;;24.33;53.61
36630;BME280;36256;42.154;23.002;2023-05-20T08:47:53;97223.72;;;24.38;52.62
36630;BME280;36256;42.154;23.002;2023-05-20T08:50:20;97226.78;;;24.40;52.05
36630;BME280;36256;42.154;23.002;2023-05-20T08:52:47;97225.81;;;24.51;52.96
36630;BME280;36256;42.154;23.002;2023-05-20T08:55:24;97223.53;;;24.62;52.74
36630;BME280;36256;42.154;23.002;2023-05-20T08:57:53;97225.94;;;24.71;51.98
36630;BME280;36256;42.154;23.002;2023-05-20T09:00:21;97221.97;;;24.61;52.87
36630;BME280;36256;42.154;23.002;2023-05-20T09:02:52;97208.06;;;24.65;50.76
36630;BME280;36256;42.154;23.002;2023-05-20T09:05:20;97207.19;;;24.57;52.30
36630;BME280;36256;42.154;23.002;2023-05-20T09:07:48;97210.75;;;24.76;54.27
36630;BME280;36256;42.154;23.002;2023-05-20T09:10:15;97204.31;;;24.97;49.41
36630;BME280;36256;42.154;23.002;2023-05-20T09:12:42;97172.97;;;24.99;47.17
36630;BME280;36256;42.154;23.002;2023-05-20T09:15:09;97197.25;;;25.11;50.42
36630;BME280;36256;42.154;23.002;2023-05-20T09:17:36;97196.66;;;25.25;51.49
36630;BME280;36256;42.154;23.002;2023-05-20T09:20:08;97189.69;;;25.47;52.51
36630;BME280;36256;42.154;23.002;2023-05-20T09:22:38;97176.78;;;25.27;52.07
36630;BME280;36256;42.154;23.002;2023-05-20T09:25:05;97183.03;;;25.39;49.63
36630;BME280;36256;42.154;23.002;2023-05-20T09:27:32;97166.34;;;25.50;49.12
36630;BME280;36256;42.154;23.002;2023-05-20T09:29:59;97172.00;;;25.43;47.00
36630;BME280;36256;42.154;23.002;2023-05-20T09:32:27;97149.88;;;25.51;46.89
36630;BME280;36256;42.154;23.002;2023-05-20T09:34:54;97153.66;;;25.66;47.31
36630;BME280;36256;42.154;23.002;2023-05-20T09:37:21;97128.53;;;25.80;39.27
36630;BME280;36256;42.154;23.002;2023-05-20T09:39:55;97102.44;;;25.78;39.59
36630;BME280;36256;42.154;23.002;2023-05-20T09:42:25;97100.41;;;25.86;37.08
36630;BME280;36256;42.154;23.002;2023-05-20T09:44:54;97099.19;;;26.02;41.59
36630;BME280;36256;42.154;23.002;2023-05-20T09:47:24;97089.78;;;26.22;37.96
36630;BME280;36256;42.154;23.002;2023-05-20T09:49:52;97088.28;;;26.29;41.02
36630;BME280;36256;42.154;23.002;2023-05-20T09:52:19;97086.41;;;26.31;40.35
36630;BME280;36256;42.154;23.002;2023-05-20T09:54:47;97081.25;;;26.37;40.14
36630;BME280;36256;42.154;23.002;2023-05-20T09:57:15;97063.38;;;26.31;39.27
36630;BME280;36256;42.154;23.002;2023-05-20T09:59:43;97068.41;;;26.38;37.70
36630;BME280;36256;42.154;23.002;2023-05-20T10:02:09;97064.75;;;26.38;40.37
36630;BME280;36256;42.154;23.002;2023-05-20T10:04:40;97066.22;;;26.60;40.53
36630;BME280;36256;42.154;23.002;2023-05-20T10:10:20;97069.88;;;26.68;38.62
36630;BME280;36256;42.154;23.002;2023-05-20T10:12:58;97063.81;;;26.79;38.81
36630;BME280;36256;42.154;23.002;2023-05-20T10:18:27;97045.84;;;26.93;35.21
36630;BME280;36256;42.154;23.002;2023-05-20T10:20:56;97055.25;;;26.94;42.26
36630;BME280;36256;42.154;23.002;2023-05-20T10:23:29;97040.84;;;26.94;37.16
36630;BME280;36256;42.154;23.002;2023-05-20T10:25:57;97028.56;;;26.93;40.20
36630;BME280;36256;42.154;23.002;2023-05-20T10:28:34;97031.81;;;26.90;40.15
36630;BME280;36256;42.154;23.002;2023-05-20T10:31:22;97028.84;;;26.67;39.58
36630;BME280;36256;42.154;23.002;2023-05-20T10:33:51;97021.63;;;26.81;39.38
36630;BME280;36256;42.154;23.002;2023-05-20T10:36:26;97025.28;;;26.82;39.86
36630;BME280;36256;42.154;23.002;2023-05-20T10:38:54;97025.31;;;26.54;36.55
36630;BME280;36256;42.154;23.002;2023-05-20T10:41:26;96998.81;;;26.48;36.75
36630;BME280;36256;42.154;23.002;2023-05-20T10:44:03;97001.50;;;26.45;39.76
36630;BME280;36256;42.154;23.002;2023-05-20T10:46:32;97009.09;;;26.71;41.86
36630;BME280;36256;42.154;23.002;2023-05-20T10:49:19;97022.00;;;26.85;41.45
36630;BME280;36256;42.154;23.002;2023-05-20T10:51:50;97018.06;;;26.68;41.17
36630;BME280;36256;42.154;23.002;2023-05-20T10:54:17;97004.25;;;26.59;37.92
36630;BME280;36256;42.154;23.002;2023-05-20T10:56:51;97018.16;;;26.83;39.52
36630;BME280;36256;42.154;23.002;2023-05-20T10:59:19;97012.06;;;26.94;39.80
36630;BME280;36256;42.154;23.002;2023-05-20T11:01:47;97009.38;;;26.96;39.07
36630;BME280;36256;42.154;23.002;2023-05-20T11:04:15;97023.00;;;26.95;37.17
36630;BME280;36256;42.154;23.002;2023-05-20T11:06:52;97049.69;;;26.96;40.62
36630;BME280;36256;42.154;23.002;2023-05-20T11:25:18;97050.13;;;26.28;41.73
36630;BME280;36256;42.154;23.002;2023-05-20T11:27:45;97055.38;;;26.09;43.39
36630;BME280;36256;42.154;23.002;2023-05-20T11:30:13;97069.00;;;25.88;40.68
36630;BME280;36256;42.154;23.002;2023-05-20T11:32:54;97056.41;;;25.16;42.23
36630;BME280;36256;42.154;23.002;2023-05-20T11:35:22;97046.28;;;24.81;45.10
36630;BME280;36256;42.154;23.002;2023-05-20T11:38:03;97054.50;;;24.38;46.26
36630;BME280;36256;42.154;23.002;2023-05-20T11:40:31;97057.16;;;23.97;48.80
36630;BME280;36256;42.154;23.002;2023-05-20T11:43:13;97044.34;;;23.98;47.28
36630;BME280;36256;42.154;23.002;2023-05-20T11:45:41;97061.09;;;23.94;45.66
36630;BME280;36256;42.154;23.002;2023-05-20T11:48:09;97047.88;;;23.78;46.42
36630;BME280;36256;42.154;23.002;2023-05-20T11:50:38;97053.97;;;23.56;46.37
36630;BME280;36256;42.154;23.002;2023-05-20T11:53:08;97055.50;;;23.44;47.26
36630;BME280;36256;42.154;23.002;2023-05-20T11:58:18;97043.63;;;23.21;47.66
36630;BME280;36256;42.154;23.002;2023-05-20T12:00:45;97031.56;;;23.09;45.70
36630;BME280;36256;42.154;23.002;2023-05-20T12:03:20;97034.34;;;23.15;47.75
36630;BME280;36256;42.154;23.002;2023-05-20T12:05:48;97029.84;;;23.19;44.75
36630;BME280;36256;42.154;23.002;2023-05-20T12:08:16;97023.38;;;23.19;46.12
36630;BME280;36256;42.154;23.002;2023-05-20T12:10:43;97024.13;;;23.19;47.33
36630;BME280;36256;42.154;23.002;2023-05-20T12:13:13;97006.53;;;22.97;48.25
36630;BME280;36256;42.154;23.002;2023-05-20T12:15:39;97015.03;;;23.02;48.47
36630;BME280;36256;42.154;23.002;2023-05-20T12:18:06;97010.09;;;23.03;48.00
36630;BME280;36256;42.154;23.002;2023-05-20T12:20:33;97011.91;;;23.19;48.35
36630;BME280;36256;42.154;23.002;2023-05-20T12:23:02;97026.41;;;23.39;47.99
36630;BME280;36256;42.154;23.002;2023-05-20T12:25:29;97004.06;;;23.51;45.09
36630;BME280;36256;42.154;23.002;2023-05-20T12:27:58;97006.97;;;23.64;47.65
36630;BME280;36256;42.154;23.002;2023-05-20T12:30:24;96996.06;;;23.76;45.49
36630;BME280;36256;42.154;23.002;2023-05-20T12:32:51;96992.09;;;23.92;44.28
36630;BME280;36256;42.154;23.002;2023-05-20T12:35:39;96994.75;;;24.03;46.64
36630;BME280;36256;42.154;23.002;2023-05-20T12:38:07;96990.47;;;24.09;47.32
36630;BME280;36256;42.154;23.002;2023-05-20T12:40:34;96992.13;;;24.18;47.16
36630;BME280;36256;42.154;23.002;2023-05-20T12:43:03;96984.38;;;24.00;47.96
36630;BME280;36256;42.154;23.002;2023-05-20T12:45:30;96968.94;;;23.90;48.62
36630;BME280;36256;42.154;23.002;2023-05-20T12:47:57;96983.72;;;23.94;45.74
36630;BME280;36256;42.154;23.002;2023-05-20T12:50:24;96980.63;;;23.79;50.44
36630;BME280;36256;42.154;23.002;2023-05-20T12:52:51;96972.03;;;23.66;48.08
36630;BME280;36256;42.154;23.002;2023-05-20T12:55:18;96969.72;;;23.77;49.82
36630;BME280;36256;42.154;23.002;2023-05-20T12:57:46;96955.28;;;23.83;51.48
36630;BME280;36256;42.154;23.002;2023-05-20T13:00:13;96966.44;;;23.86;51.26
36630;BME280;36256;42.154;23.002;2023-05-20T13:02:41;96966.19;;;23.97;50.94
36630;BME280;36256;42.154;23.002;2023-05-20T13:05:08;96951.31;;;24.12;49.26
36630;BME280;36256;42.154;23.002;2023-05-20T13:07:36;96943.31;;;24.31;49.60
36630;BME280;36256;42.154;23.002;2023-05-20T13:10:03;96942.59;;;24.64;50.83
36630;BME280;36256;42.154;23.002;2023-05-20T13:12:30;96946.69;;;24.89;53.76
36630;BME280;36256;42.154;23.002;2023-05-20T13:14:56;96943.41;;;25.06;50.92